sensor_id;sensor_type;location;lat;lon;timestamp;temperature;humidity
65637;DHT22;52327;42.622;23.316;2023-02-15T00:01:22;0.47;78.13
65637;DHT22;52327;42.622;23.316;2023-02-15T00:03:48;0.47;77.81
65637;DHT22;52327;42.622;23.316;2023-02-15T00:06:14;0.51;77.78
65637;DHT22;52327;42.622;23.316;2023-02-15T00:08:39;0.55;77.91
65637;DHT22;52327;42.622;23.316;2023-02-15T00:11:06;0.48;77.94
65637;DHT22;52327;42.622;23.316;2023-02-15T00:13:32;0.47;78.29
65637;DHT22;52327;42.622;23.316;2023-02-15T00:16:05;0.44;78.66
65637;DHT22;52327;42.622;23.316;2023-02-15T00:18:31;0.43;78.55
65637;DHT22;52327;42.622;23.316;2023-02-15T00:20:57;0.38;78.76
65637;DHT22;52327;42.622;23.316;2023-02-15T00:23:23;0.43;78.93
65637;DHT22;52327;42.622;23.316;2023-02-15T00:25:48;0.47;78.89
65637;DHT22;52327;42.622;23.316;2023-02-15T00:28:14;0.43;79.05
65637;DHT22;52327;42.622;23.316;2023-02-15T00:30:39;0.43;79.10
65637;DHT22;52327;42.622;23.316;2023-02-15T00:33:04;0.43;79.05
65637;DHT22;52327;42.622;23.316;2023-02-15T00:35:30;0.47;78.70
65637;DHT22;52327;42.622;23.316;2023-02-15T00:37:56;0.53;78.30
65637;DHT22;52327;42.622;23.316;2023-02-15T00:40:22;0.62;77.86
65637;DHT22;52327;42.622;23.316;2023-02-15T00:42:47;0.57;77.82
65637;DHT22;52327;42.622;23.316;2023-02-15T00:45:13;0.57;77.94
65637;DHT22;52327;42.622;23.316;2023-02-15T00:47:38;0.55;78.25
65637;DHT22;52327;42.622;23.316;2023-02-15T00:50:04;0.51;78.60
65637;DHT22;52327;42.622;23.316;2023-02-15T00:52:30;0.53;78.55
65637;DHT22;52327;42.622;23.316;2023-02-15T00:54:56;0.55;78.65
65637;DHT22;52327;42.622;23.316;2023-02-15T00:57:21;0.47;78.99
65637;DHT22;52327;42.622;23.316;2023-02-15T00:59:47;0.48;78.99
65637;DHT22;52327;42.622;23.316;2023-02-15T01:02:12;0.53;78.97
65637;DHT22;52327;42.622;23.316;2023-02-15T01:04:37;0.43;79.11
65637;DHT22;52327;42.622;23.316;2023-02-15T01:07:03;0.40;79.41
65637;DHT22;52327;42.622;23.316;2023-02-15T01:09:29;0.37;79.09
65637;DHT22;52327;42.622;23.316;2023-02-15T01:11:54;0.41;79.08
65637;DHT22;52327;42.622;23.316;2023-02-15T01:14:20;0.43;79.20
65637;DHT22;52327;42.622;23.316;2023-02-15T01:16:45;0.45;78.82
65637;DHT22;52327;42.622;23.316;2023-02-15T01:19:10;0.44;79.16
65637;DHT22;52327;42.622;23.316;2023-02-15T01:21:37;0.41;79.01
65637;DHT22;52327;42.622;23.316;2023-02-15T01:24:02;0.48;79.16
65637;DHT22;52327;42.622;23.316;2023-02-15T01:26:28;0.55;79.05
65637;DHT22;52327;42.622;23.316;2023-02-15T01:28:53;0.61;79.07
65637;DHT22;52327;42.622;23.316;2023-02-15T01:31:20;0.57;78.94
65637;DHT22;52327;42.622;23.316;2023-02-15T01:33:47;0.57;79.22
65637;DHT22;52327;42.622;23.316;2023-02-15T01:36:13;0.54;79.36
65637;DHT22;52327;42.622;23.316;2023-02-15T01:38:38;0.51;79.32
65637;DHT22;52327;42.622;23.316;2023-02-15T01:41:05;0.48;79.67
65637;DHT22;52327;42.622;23.316;2023-02-15T01:44:01;0.47;79.77
65637;DHT22;52327;42.622;23.316;2023-02-15T01:46:37;0.47;79.88
65637;DHT22;52327;42.622;23.316;2023-02-15T01:49:10;0.41;79.95
65637;DHT22;52327;42.622;23.316;2023-02-15T01:51:37;0.40;79.93
65637;DHT22;52327;42.622;23.316;2023-02-15T01:54:15;0.36;79.87
65637;DHT22;52327;42.622;23.316;2023-02-15T01:56:43;0.33;80.27
65637;DHT22;52327;42.622;23.316;2023-02-15T01:59:16;0.34;80.38
65637;DHT22;52327;42.622;23.316;2023-02-15T02:01:42;0.31;80.56
65637;DHT22;52327;42.622;23.316;2023-02-15T02:04:17;0.30;80.50
65637;DHT22;52327;42.622;23.316;2023-02-15T02:06:48;0.30;80.34
65637;DHT22;52327;42.622;23.316;2023-02-15T02:09:15;0.34;80.15
65637;DHT22;52327;42.622;23.316;2023-02-15T02:11:41;0.34;80.22
65637;DHT22;52327;42.622;23.316;2023-02-15T02:14:08;0.34;79.98
65637;DHT22;52327;42.622;23.316;2023-02-15T02:16:49;0.34;79.98
65637;DHT22;52327;42.622;23.316;2023-02-15T02:22:41;0.36;80.33
65637;DHT22;52327;42.622;23.316;2023-02-15T02:36:28;0.54;79.49
65637;DHT22;52327;42.622;23.316;2023-02-15T02:44:31;0.65;78.88
65637;DHT22;52327;42.622;23.316;2023-02-15T02:46:59;0.65;78.87
65637;DHT22;52327;42.622;23.316;2023-02-15T02:49:35;0.60;79.23
65637;DHT22;52327;42.622;23.316;2023-02-15T02:52:03;0.71;78.84
65637;DHT22;52327;42.622;23.316;2023-02-15T02:54:29;0.75;78.50
65637;DHT22;52327;42.622;23.316;2023-02-15T02:56:59;0.74;78.69
65637;DHT22;52327;42.622;23.316;2023-02-15T02:59:38;0.75;78.86
65637;DHT22;52327;42.622;23.316;2023-02-15T03:02:23;0.74;78.68
65637;DHT22;52327;42.622;23.316;2023-02-15T03:04:56;0.75;78.63
65637;DHT22;52327;42.622;23.316;2023-02-15T03:07:24;0.78;78.72
65637;DHT22;52327;42.622;23.316;2023-02-15T03:09:53;0.72;78.94
65637;DHT22;52327;42.622;23.316;2023-02-15T03:12:28;0.79;79.02
65637;DHT22;52327;42.622;23.316;2023-02-15T03:15:02;0.75;79.00
65637;DHT22;52327;42.622;23.316;2023-02-15T03:17:31;0.75;79.22
65637;DHT22;52327;42.622;23.316;2023-02-15T03:20:00;0.88;78.59
65637;DHT22;52327;42.622;23.316;2023-02-15T03:22:35;0.95;78.39
65637;DHT22;52327;42.622;23.316;2023-02-15T03:25:09;0.91;78.28
65637;DHT22;52327;42.622;23.316;2023-02-15T03:27:42;0.85;78.81
65637;DHT22;52327;42.622;23.316;2023-02-15T03:30:10;0.92;79.17
65637;DHT22;52327;42.622;23.316;2023-02-15T03:32:37;0.79;78.98
65637;DHT22;52327;42.622;23.316;2023-02-15T03:35:05;0.86;78.77
65637;DHT22;52327;42.622;23.316;2023-02-15T03:37:37;0.98;78.64
65637;DHT22;52327;42.622;23.316;2023-02-15T03:40:21;0.81;78.38
65637;DHT22;52327;42.622;23.316;2023-02-15T03:43:21;0.76;79.21
65637;DHT22;52327;42.622;23.316;2023-02-15T03:45:53;0.79;79.20
65637;DHT22;52327;42.622;23.316;2023-02-15T03:48:33;0.84;78.98
65637;DHT22;52327;42.622;23.316;2023-02-15T03:51:03;0.81;79.17
65637;DHT22;52327;42.622;23.316;2023-02-15T03:53:50;0.84;79.40
65637;DHT22;52327;42.622;23.316;2023-02-15T03:56:16;0.84;79.40
65637;DHT22;52327;42.622;23.316;2023-02-15T03:58:42;0.82;79.50
65637;DHT22;52327;42.622;23.316;2023-02-15T04:02:16;0.91;78.99
65637;DHT22;52327;42.622;23.316;2023-02-15T04:04:36;1.00;78.91
65637;DHT22;52327;42.622;23.316;2023-02-15T04:07:03;0.98;79.08
65637;DHT22;52327;42.622;23.316;2023-02-15T04:09:29;0.91;79.38
65637;DHT22;52327;42.622;23.316;2023-02-15T04:12:13;0.84;79.47
65637;DHT22;52327;42.622;23.316;2023-02-15T04:14:38;0.85;79.83
65637;DHT22;52327;42.622;23.316;2023-02-15T04:17:23;0.85;80.16
65637;DHT22;52327;42.622;23.316;2023-02-15T04:19:48;0.85;80.30
65637;DHT22;52327;42.622;23.316;2023-02-15T04:22:32;0.95;80.24
65637;DHT22;52327;42.622;23.316;2023-02-15T04:25:17;0.92;80.15
65637;DHT22;52327;42.622;23.316;2023-02-15T04:27:48;0.98;80.25
65637;DHT22;52327;42.622;23.316;2023-02-15T04:30:16;0.92;80.42
65637;DHT22;52327;42.622;23.316;2023-02-15T04:32:42;0.92;80.50
65637;DHT22;52327;42.622;23.316;2023-02-15T04:35:08;0.95;80.17
65637;DHT22;52327;42.622;23.316;2023-02-15T04:37:34;0.96;80.52
65637;DHT22;52327;42.622;23.316;2023-02-15T04:39:59;1.02;80.27
65637;DHT22;52327;42.622;23.316;2023-02-15T04:42:26;0.99;79.89
65637;DHT22;52327;42.622;23.316;2023-02-15T04:44:52;0.88;80.46
65637;DHT22;52327;42.622;23.316;2023-02-15T04:47:18;0.76;80.69
65637;DHT22;52327;42.622;23.316;2023-02-15T04:49:43;0.85;80.30
65637;DHT22;52327;42.622;23.316;2023-02-15T04:52:09;0.89;80.04
65637;DHT22;52327;42.622;23.316;2023-02-15T04:54:34;0.85;80.10
65637;DHT22;52327;42.622;23.316;2023-02-15T04:57:00;0.79;80.17
65637;DHT22;52327;42.622;23.316;2023-02-15T04:59:26;0.78;80.23
65637;DHT22;52327;42.622;23.316;2023-02-15T05:01:51;0.84;80.25
65637;DHT22;52327;42.622;23.316;2023-02-15T05:04:17;0.79;80.18
65637;DHT22;52327;42.622;23.316;2023-02-15T05:06:42;0.86;80.30
65637;DHT22;52327;42.622;23.316;2023-02-15T05:09:07;0.81;80.26
65637;DHT22;52327;42.622;23.316;2023-02-15T05:11:33;0.91;80.43
65637;DHT22;52327;42.622;23.316;2023-02-15T05:13:58;0.74;80.63
65637;DHT22;52327;42.622;23.316;2023-02-15T05:16:24;0.69;80.70
65637;DHT22;52327;42.622;23.316;2023-02-15T05:18:50;0.72;80.91
65637;DHT22;52327;42.622;23.316;2023-02-15T05:21:16;0.69;81.00
65637;DHT22;52327;42.622;23.316;2023-02-15T05:23:42;0.71;80.84
65637;DHT22;52327;42.622;23.316;2023-02-15T05:26:10;0.78;80.47
65637;DHT22;52327;42.622;23.316;2023-02-15T05:28:55;0.67;81.00
65637;DHT22;52327;42.622;23.316;2023-02-15T05:31:21;0.71;80.93
65637;DHT22;52327;42.622;23.316;2023-02-15T05:33:46;0.67;81.07
65637;DHT22;52327;42.622;23.316;2023-02-15T05:36:12;0.67;80.94
65637;DHT22;52327;42.622;23.316;2023-02-15T05:38:38;0.78;80.54
65637;DHT22;52327;42.622;23.316;2023-02-15T05:41:08;0.88;80.02
65637;DHT22;52327;42.622;23.316;2023-02-15T05:43:34;0.91;80.03
65637;DHT22;52327;42.622;23.316;2023-02-15T05:46:00;0.79;80.09
65637;DHT22;52327;42.622;23.316;2023-02-15T05:48:27;0.86;79.95
65637;DHT22;52327;42.622;23.316;2023-02-15T05:51:02;0.89;80.00
65637;DHT22;52327;42.622;23.316;2023-02-15T05:53:30;0.95;79.57
65637;DHT22;52327;42.622;23.316;2023-02-15T05:55:56;0.95;79.53
65637;DHT22;52327;42.622;23.316;2023-02-15T05:58:31;0.88;79.63
65637;DHT22;52327;42.622;23.316;2023-02-15T06:00:57;0.96;79.58
65637;DHT22;52327;42.622;23.316;2023-02-15T06:03:23;0.96;79.60
65637;DHT22;52327;42.622;23.316;2023-02-15T06:05:51;0.95;79.81
65637;DHT22;52327;42.622;23.316;2023-02-15T06:08:16;1.08;79.72
65637;DHT22;52327;42.622;23.316;2023-02-15T06:10:42;1.00;79.34
65637;DHT22;52327;42.622;23.316;2023-02-15T06:13:07;1.05;79.41
65637;DHT22;52327;42.622;23.316;2023-02-15T06:15:32;1.06;79.42
65637;DHT22;52327;42.622;23.316;2023-02-15T06:17:58;1.13;78.84
65637;DHT22;52327;42.622;23.316;2023-02-15T06:20:24;1.13;79.29
65637;DHT22;52327;42.622;23.316;2023-02-15T06:22:49;0.96;79.49
65637;DHT22;52327;42.622;23.316;2023-02-15T06:25:15;1.00;79.40
65637;DHT22;52327;42.622;23.316;2023-02-15T06:27:41;1.03;79.53
65637;DHT22;52327;42.622;23.316;2023-02-15T06:30:07;1.16;78.94
65637;DHT22;52327;42.622;23.316;2023-02-15T06:32:33;1.20;78.58
65637;DHT22;52327;42.622;23.316;2023-02-15T06:34:58;1.23;78.49
65637;DHT22;52327;42.622;23.316;2023-02-15T06:37:24;1.19;78.77
65637;DHT22;52327;42.622;23.316;2023-02-15T06:39:49;1.19;78.61
65637;DHT22;52327;42.622;23.316;2023-02-15T06:42:14;1.16;78.02
65637;DHT22;52327;42.622;23.316;2023-02-15T06:44:40;1.23;78.02
65637;DHT22;52327;42.622;23.316;2023-02-15T06:47:05;1.26;77.70
65637;DHT22;52327;42.622;23.316;2023-02-15T06:49:31;1.27;77.53
65637;DHT22;52327;42.622;23.316;2023-02-15T06:51:56;1.29;77.48
65637;DHT22;52327;42.622;23.316;2023-02-15T06:54:22;1.37;77.18
65637;DHT22;52327;42.622;23.316;2023-02-15T06:56:48;1.42;76.59
65637;DHT22;52327;42.622;23.316;2023-02-15T06:59:13;1.56;76.89
65637;DHT22;52327;42.622;23.316;2023-02-15T07:01:39;1.57;76.46
65637;DHT22;52327;42.622;23.316;2023-02-15T07:04:04;1.57;76.57
65637;DHT22;52327;42.622;23.316;2023-02-15T07:06:31;1.40;76.47
65637;DHT22;52327;42.622;23.316;2023-02-15T07:08:57;1.39;76.96
65637;DHT22;52327;42.622;23.316;2023-02-15T07:11:23;1.43;76.60
65637;DHT22;52327;42.622;23.316;2023-02-15T07:14:07;1.47;76.52
65637;DHT22;52327;42.622;23.316;2023-02-15T07:16:32;1.49;76.60
65637;DHT22;52327;42.622;23.316;2023-02-15T07:18:58;1.60;75.91
65637;DHT22;52327;42.622;23.316;2023-02-15T07:21:23;1.67;75.66
65637;DHT22;52327;42.622;23.316;2023-02-15T07:23:49;1.74;75.50
65637;DHT22;52327;42.622;23.316;2023-02-15T07:26:14;1.78;75.19
65637;DHT22;52327;42.622;23.316;2023-02-15T07:28:39;1.84;75.20
65637;DHT22;52327;42.622;23.316;2023-02-15T07:31:05;1.81;75.07
65637;DHT22;52327;42.622;23.316;2023-02-15T07:33:32;1.75;75.52
65637;DHT22;52327;42.622;23.316;2023-02-15T07:35:59;1.78;74.75
65637;DHT22;52327;42.622;23.316;2023-02-15T07:38:26;1.80;75.17
65637;DHT22;52327;42.622;23.316;2023-02-15T07:41:04;1.73;75.11
65637;DHT22;52327;42.622;23.316;2023-02-15T07:43:33;1.87;74.65
65637;DHT22;52327;42.622;23.316;2023-02-15T07:46:01;1.68;74.56
65637;DHT22;52327;42.622;23.316;2023-02-15T07:48:26;1.77;74.76
65637;DHT22;52327;42.622;23.316;2023-02-15T07:50:52;1.81;74.45
65637;DHT22;52327;42.622;23.316;2023-02-15T07:53:17;1.85;73.80
65637;DHT22;52327;42.622;23.316;2023-02-15T07:55:43;1.88;73.92
65637;DHT22;52327;42.622;23.316;2023-02-15T07:58:08;1.99;73.41
65637;DHT22;52327;42.622;23.316;2023-02-15T08:00:34;1.99;73.20
65637;DHT22;52327;42.622;23.316;2023-02-15T08:03:19;2.01;73.53
65637;DHT22;52327;42.622;23.316;2023-02-15T08:05:45;1.94;73.58
65637;DHT22;52327;42.622;23.316;2023-02-15T08:08:11;1.98;73.59
65637;DHT22;52327;42.622;23.316;2023-02-15T08:11:02;2.09;73.72
65637;DHT22;52327;42.622;23.316;2023-02-15T08:13:48;2.24;73.33
65637;DHT22;52327;42.622;23.316;2023-02-15T08:16:50;2.39;73.03
65637;DHT22;52327;42.622;23.316;2023-02-15T08:19:22;2.38;73.09
65637;DHT22;52327;42.622;23.316;2023-02-15T08:21:51;2.21;73.21
65637;DHT22;52327;42.622;23.316;2023-02-15T08:24:19;2.05;73.85
65637;DHT22;52327;42.622;23.316;2023-02-15T08:26:45;2.11;73.69
65637;DHT22;52327;42.622;23.316;2023-02-15T08:29:12;2.17;74.28
65637;DHT22;52327;42.622;23.316;2023-02-15T08:31:39;2.24;74.09
65637;DHT22;52327;42.622;23.316;2023-02-15T08:34:07;2.28;73.94
65637;DHT22;52327;42.622;23.316;2023-02-15T08:36:33;2.19;73.82
65637;DHT22;52327;42.622;23.316;2023-02-15T08:38:59;2.28;73.80
65637;DHT22;52327;42.622;23.316;2023-02-15T08:41:28;2.21;74.03
65637;DHT22;52327;42.622;23.316;2023-02-15T08:44:00;2.36;73.78
65637;DHT22;52327;42.622;23.316;2023-02-15T08:46:28;2.14;73.70
65637;DHT22;52327;42.622;23.316;2023-02-15T08:48:54;2.31;73.85
65637;DHT22;52327;42.622;23.316;2023-02-15T08:51:28;2.45;73.30
65637;DHT22;52327;42.622;23.316;2023-02-15T08:53:58;2.54;72.35
65637;DHT22;52327;42.622;23.316;2023-02-15T08:56:27;2.50;72.15
65637;DHT22;52327;42.622;23.316;2023-02-15T08:58:54;2.45;72.49
65637;DHT22;52327;42.622;23.316;2023-02-15T09:01:22;2.45;72.70
65637;DHT22;52327;42.622;23.316;2023-02-15T09:03:50;2.56;71.99
65637;DHT22;52327;42.622;23.316;2023-02-15T09:06:18;2.66;71.31
65637;DHT22;52327;42.622;23.316;2023-02-15T09:08:43;2.76;71.09
65637;DHT22;52327;42.622;23.316;2023-02-15T09:11:17;2.75;71.49
65637;DHT22;52327;42.622;23.316;2023-02-15T09:13:49;2.64;70.91
65637;DHT22;52327;42.622;23.316;2023-02-15T09:16:14;2.57;71.40
65637;DHT22;52327;42.622;23.316;2023-02-15T09:18:42;2.64;71.60
65637;DHT22;52327;42.622;23.316;2023-02-15T09:21:09;2.54;71.46
65637;DHT22;52327;42.622;23.316;2023-02-15T09:23:35;2.60;71.06
65637;DHT22;52327;42.622;23.316;2023-02-15T09:26:06;2.73;71.09
65637;DHT22;52327;42.622;23.316;2023-02-15T09:28:32;2.93;70.93
65637;DHT22;52327;42.622;23.316;2023-02-15T09:31:20;2.77;71.28
65637;DHT22;52327;42.622;23.316;2023-02-15T09:33:47;3.04;70.73
65637;DHT22;52327;42.622;23.316;2023-02-15T09:38:41;3.07;70.55
65637;DHT22;52327;42.622;23.316;2023-02-15T09:41:38;2.93;70.94
65637;DHT22;52327;42.622;23.316;2023-02-15T09:46:52;2.83;71.81
65637;DHT22;52327;42.622;23.316;2023-02-15T09:52:54;3.21;70.80
65637;DHT22;52327;42.622;23.316;2023-02-15T10:01:34;3.36;69.85
65637;DHT22;52327;42.622;23.316;2023-02-15T10:29:06;2.90;71.36
65637;DHT22;52327;42.622;23.316;2023-02-15T10:37:03;3.14;71.11
65637;DHT22;52327;42.622;23.316;2023-02-15T10:50:59;3.15;70.67
65637;DHT22;52327;42.622;23.316;2023-02-15T10:56:41;3.14;71.24
65637;DHT22;52327;42.622;23.316;2023-02-15T11:07:36;3.36;70.66
65637;DHT22;52327;42.622;23.316;2023-02-15T11:13:12;3.39;70.99
65637;DHT22;52327;42.622;23.316;2023-02-15T11:15:49;3.56;70.63
65637;DHT22;52327;42.622;23.316;2023-02-15T11:18:43;3.78;69.59
65637;DHT22;52327;42.622;23.316;2023-02-15T11:21:24;3.59;69.38
65637;DHT22;52327;42.622;23.316;2023-02-15T11:23:51;3.46;70.22
65637;DHT22;52327;42.622;23.316;2023-02-15T11:26:24;3.52;70.16
65637;DHT22;52327;42.622;23.316;2023-02-15T11:29:34;3.69;69.25
65637;DHT22;52327;42.622;23.316;2023-02-15T11:32:04;3.46;69.13
65637;DHT22;52327;42.622;23.316;2023-02-15T11:34:44;3.45;70.18
65637;DHT22;52327;42.622;23.316;2023-02-15T11:37:16;3.58;70.65
65637;DHT22;52327;42.622;23.316;2023-02-15T11:39:43;3.69;70.17
65637;DHT22;52327;42.622;23.316;2023-02-15T11:42:19;3.85;69.15
65637;DHT22;52327;42.622;23.316;2023-02-15T11:45:04;3.90;68.76
65637;DHT22;52327;42.622;23.316;2023-02-15T11:47:32;3.71;69.53
65637;DHT22;52327;42.622;23.316;2023-02-15T11:49:59;3.87;68.98
65637;DHT22;52327;42.622;23.316;2023-02-15T11:52:24;3.89;68.81
65637;DHT22;52327;42.622;23.316;2023-02-15T11:54:51;3.97;68.47
65637;DHT22;52327;42.622;23.316;2023-02-15T11:58:04;3.99;68.33
65637;DHT22;52327;42.622;23.316;2023-02-15T12:00:37;3.97;68.24
65637;DHT22;52327;42.622;23.316;2023-02-15T12:03:37;3.87;69.03
65637;DHT22;52327;42.622;23.316;2023-02-15T12:06:05;3.76;69.02
65637;DHT22;52327;42.622;23.316;2023-02-15T12:08:38;3.79;68.94
65637;DHT22;52327;42.622;23.316;2023-02-15T12:11:20;3.97;68.66
65637;DHT22;52327;42.622;23.316;2023-02-15T12:14:02;4.10;68.07
65637;DHT22;52327;42.622;23.316;2023-02-15T12:16:29;4.02;68.03
65637;DHT22;52327;42.622;23.316;2023-02-15T12:18:59;4.06;68.11
65637;DHT22;52327;42.622;23.316;2023-02-15T12:21:34;4.00;68.41
65637;DHT22;52327;42.622;23.316;2023-02-15T12:24:26;4.37;67.96
65637;DHT22;52327;42.622;23.316;2023-02-15T12:27:17;4.56;66.48
65637;DHT22;52327;42.622;23.316;2023-02-15T12:29:49;4.40;67.06
65637;DHT22;52327;42.622;23.316;2023-02-15T12:32:32;4.53;67.11
65637;DHT22;52327;42.622;23.316;2023-02-15T12:35:09;4.48;67.00
65637;DHT22;52327;42.622;23.316;2023-02-15T12:37:37;4.53;66.72
65637;DHT22;52327;42.622;23.316;2023-02-15T12:40:20;4.65;66.53
65637;DHT22;52327;42.622;23.316;2023-02-15T12:42:45;4.71;66.68
65637;DHT22;52327;42.622;23.316;2023-02-15T12:45:32;4.99;66.37
65637;DHT22;52327;42.622;23.316;2023-02-15T12:48:20;5.19;65.24
65637;DHT22;52327;42.622;23.316;2023-02-15T12:50:50;5.08;65.12
65637;DHT22;52327;42.622;23.316;2023-02-15T12:53:21;4.93;65.94
65637;DHT22;52327;42.622;23.316;2023-02-15T12:55:56;4.57;66.50
65637;DHT22;52327;42.622;23.316;2023-02-15T12:58:27;4.71;67.21
65637;DHT22;52327;42.622;23.316;2023-02-15T13:01:14;4.71;66.81
65637;DHT22;52327;42.622;23.316;2023-02-15T13:04:04;4.79;66.44
65637;DHT22;52327;42.622;23.316;2023-02-15T13:06:33;4.88;66.09
65637;DHT22;52327;42.622;23.316;2023-02-15T13:09:15;5.00;65.58
65637;DHT22;52327;42.622;23.316;2023-02-15T13:11:43;4.92;66.16
65637;DHT22;52327;42.622;23.316;2023-02-15T13:14:31;5.13;65.44
65637;DHT22;52327;42.622;23.316;2023-02-15T13:17:01;5.11;65.01
65637;DHT22;52327;42.622;23.316;2023-02-15T13:19:43;5.02;65.48
65637;DHT22;52327;42.622;23.316;2023-02-15T13:22:16;5.25;65.16
65637;DHT22;52327;42.622;23.316;2023-02-15T13:24:53;5.05;65.67
65637;DHT22;52327;42.622;23.316;2023-02-15T13:27:22;4.87;66.21
65637;DHT22;52327;42.622;23.316;2023-02-15T13:29:51;4.79;66.19
65637;DHT22;52327;42.622;23.316;2023-02-15T13:32:33;5.00;65.82
65637;DHT22;52327;42.622;23.316;2023-02-15T13:35:03;4.78;66.16
65637;DHT22;52327;42.622;23.316;2023-02-15T13:40:53;4.75;66.41
65637;DHT22;52327;42.622;23.316;2023-02-15T13:46:18;4.75;66.46
65637;DHT22;52327;42.622;23.316;2023-02-15T13:54:08;4.99;65.76
65637;DHT22;52327;42.622;23.316;2023-02-15T14:18:55;4.53;67.68
65637;DHT22;52327;42.622;23.316;2023-02-15T14:27:07;4.21;70.23
65637;DHT22;52327;42.622;23.316;2023-02-15T14:32:51;4.03;69.71
65637;DHT22;52327;42.622;23.316;2023-02-15T14:35:20;3.71;70.64
65637;DHT22;52327;42.622;23.316;2023-02-15T14:46:55;3.59;71.46
65637;DHT22;52327;42.622;23.316;2023-02-15T14:49:30;3.55;71.54
65637;DHT22;52327;42.622;23.316;2023-02-15T14:51:57;3.48;72.02
65637;DHT22;52327;42.622;23.316;2023-02-15T14:59:46;3.50;71.35
65637;DHT22;52327;42.622;23.316;2023-02-15T15:02:23;3.54;72.45
65637;DHT22;52327;42.622;23.316;2023-02-15T15:07:41;3.48;73.07
65637;DHT22;52327;42.622;23.316;2023-02-15T15:12:52;3.20;73.90
65637;DHT22;52327;42.622;23.316;2023-02-15T15:18:05;3.03;74.78
65637;DHT22;52327;42.622;23.316;2023-02-15T15:20:41;2.91;74.76
65637;DHT22;52327;42.622;23.316;2023-02-15T15:25:50;2.80;74.23
65637;DHT22;52327;42.622;23.316;2023-02-15T15:31:17;2.59;75.14
65637;DHT22;52327;42.622;23.316;2023-02-15T15:49:45;1.81;77.88
65637;DHT22;52327;42.622;23.316;2023-02-15T15:52:16;1.81;78.34
65637;DHT22;52327;42.622;23.316;2023-02-15T15:54:42;1.80;78.11
65637;DHT22;52327;42.622;23.316;2023-02-15T15:57:38;1.78;78.66
65637;DHT22;52327;42.622;23.316;2023-02-15T16:00:24;1.74;78.56
65637;DHT22;52327;42.622;23.316;2023-02-15T16:02:52;1.75;77.20
65637;DHT22;52327;42.622;23.316;2023-02-15T16:05:18;1.68;77.77
65637;DHT22;52327;42.622;23.316;2023-02-15T16:07:43;1.53;77.75
65637;DHT22;52327;42.622;23.316;2023-02-15T16:12:47;1.40;78.23
65637;DHT22;52327;42.622;23.316;2023-02-15T16:15:24;1.25;79.03
65637;DHT22;52327;42.622;23.316;2023-02-15T16:17:54;1.09;79.31
65637;DHT22;52327;42.622;23.316;2023-02-15T16:20:36;1.05;79.58
65637;DHT22;52327;42.622;23.316;2023-02-15T16:25:58;0.96;79.73
65637;DHT22;52327;42.622;23.316;2023-02-15T16:28:28;0.91;80.39
65637;DHT22;52327;42.622;23.316;2023-02-15T16:31:12;0.93;79.81
65637;DHT22;52327;42.622;23.316;2023-02-15T16:33:39;0.89;79.73
65637;DHT22;52327;42.622;23.316;2023-02-15T16:36:26;0.79;77.77
65637;DHT22;52327;42.622;23.316;2023-02-15T16:41:29;0.75;79.50
65637;DHT22;52327;42.622;23.316;2023-02-15T16:44:06;0.76;80.17
65637;DHT22;52327;42.622;23.316;2023-02-15T16:46:38;0.78;79.33
65637;DHT22;52327;42.622;23.316;2023-02-15T16:49:12;0.81;79.85
65637;DHT22;52327;42.622;23.316;2023-02-15T16:51:41;0.81;79.71
65637;DHT22;52327;42.622;23.316;2023-02-15T16:54:18;0.72;79.20
65637;DHT22;52327;42.622;23.316;2023-02-15T16:56:45;0.69;79.54
65637;DHT22;52327;42.622;23.316;2023-02-15T16:59:31;0.64;78.48
65637;DHT22;52327;42.622;23.316;2023-02-15T17:01:59;0.57;79.40
65637;DHT22;52327;42.622;23.316;2023-02-15T17:04:29;0.58;79.78
65637;DHT22;52327;42.622;23.316;2023-02-15T17:07:16;0.62;79.98
65637;DHT22;52327;42.622;23.316;2023-02-15T17:09:51;0.58;79.71
65637;DHT22;52327;42.622;23.316;2023-02-15T17:12:45;0.68;78.02
65637;DHT22;52327;42.622;23.316;2023-02-15T17:18:06;0.55;79.21
65637;DHT22;52327;42.622;23.316;2023-02-15T17:20:37;0.57;78.58
65637;DHT22;52327;42.622;23.316;2023-02-15T17:23:04;0.54;78.84
65637;DHT22;52327;42.622;23.316;2023-02-15T17:25:37;0.57;78.84
65637;DHT22;52327;42.622;23.316;2023-02-15T17:28:04;0.48;78.96
65637;DHT22;52327;42.622;23.316;2023-02-15T17:30:33;0.44;79.71
65637;DHT22;52327;42.622;23.316;2023-02-15T17:33:01;0.51;78.22
65637;DHT22;52327;42.622;23.316;2023-02-15T17:35:28;0.48;78.43
65637;DHT22;52327;42.622;23.316;2023-02-15T17:38:17;0.53;78.38
65637;DHT22;52327;42.622;23.316;2023-02-15T17:40:43;0.54;79.38
65637;DHT22;52327;42.622;23.316;2023-02-15T17:43:08;0.65;78.23
65637;DHT22;52327;42.622;23.316;2023-02-15T17:45:37;0.60;78.36
65637;DHT22;52327;42.622;23.316;2023-02-15T17:48:05;0.57;78.01
65637;DHT22;52327;42.622;23.316;2023-02-15T17:50:32;0.54;78.54
65637;DHT22;52327;42.622;23.316;2023-02-15T17:52:58;0.58;78.04
65637;DHT22;52327;42.622;23.316;2023-02-15T17:55:26;0.53;78.87
65637;DHT22;52327;42.622;23.316;2023-02-15T17:58:11;0.43;78.91
65637;DHT22;52327;42.622;23.316;2023-02-15T18:00:43;0.48;78.38
65637;DHT22;52327;42.622;23.316;2023-02-15T18:03:49;0.41;79.00
65637;DHT22;52327;42.622;23.316;2023-02-15T18:06:36;0.41;76.90
65637;DHT22;52327;42.622;23.316;2023-02-15T18:09:21;0.37;78.78
65637;DHT22;52327;42.622;23.316;2023-02-15T18:12:27;0.45;77.67
65637;DHT22;52327;42.622;23.316;2023-02-15T18:14:53;0.55;77.16
65637;DHT22;52327;42.622;23.316;2023-02-15T18:17:21;0.57;77.43
65637;DHT22;52327;42.622;23.316;2023-02-15T18:19:49;0.53;78.23
65637;DHT22;52327;42.622;23.316;2023-02-15T18:22:17;0.38;78.11
65637;DHT22;52327;42.622;23.316;2023-02-15T18:24:43;0.31;79.13
65637;DHT22;52327;42.622;23.316;2023-02-15T18:27:10;0.25;78.02
65637;DHT22;52327;42.622;23.316;2023-02-15T18:29:36;0.21;78.90
65637;DHT22;52327;42.622;23.316;2023-02-15T18:32:02;0.33;77.81
65637;DHT22;52327;42.622;23.316;2023-02-15T18:34:33;0.25;78.31
65637;DHT22;52327;42.622;23.316;2023-02-15T18:37:01;0.14;79.58
65637;DHT22;52327;42.622;23.316;2023-02-15T18:39:59;0.10;80.49
65637;DHT22;52327;42.622;23.316;2023-02-15T18:42:27;0.14;80.99
65637;DHT22;52327;42.622;23.316;2023-02-15T18:44:55;0.25;79.40
65637;DHT22;52327;42.622;23.316;2023-02-15T18:47:22;0.20;79.04
65637;DHT22;52327;42.622;23.316;2023-02-15T18:49:47;0.13;80.18
65637;DHT22;52327;42.622;23.316;2023-02-15T18:52:17;0.17;79.79
65637;DHT22;52327;42.622;23.316;2023-02-15T18:54:44;0.13;80.12
65637;DHT22;52327;42.622;23.316;2023-02-15T18:57:12;0.07;80.04
65637;DHT22;52327;42.622;23.316;2023-02-15T18:59:38;0.09;80.68
65637;DHT22;52327;42.622;23.316;2023-02-15T19:02:18;0.16;79.15
65637;DHT22;52327;42.622;23.316;2023-02-15T19:04:44;0.17;79.96